Time;durP1;ratioP1;P1;durP2;ratioP2;P2;SDS_P1;SDS_P2;PMS_P1;PMS_P2;Temp;Humidity;BMP_temperature;BMP_pressure;BME280_temperature;BME280_humidity;BME280_pressure;Samples;Min_cycle;Max_cycle;Signal;HPM_P1;HPM_P2
2023/10/30 00:01:47;;;;;;;9.80;9.33;;;;;;;11.12;83.99;93207.16;5061138;28;20782;-84
2023/10/30 00:04:13;;;;;;;10.43;9.77;;;;;;;11.14;84.46;93209.50;5060149;28;20200;-80
2023/10/30 00:06:39;;;;;;;9.40;8.90;;;;;;;11.10;84.10;93192.78;5041661;28;20241;-82
2023/10/30 00:09:04;;;;;;;10.17;9.67;;;;;;;11.11;83.68;93212.66;5043961;28;20185;-84
2023/10/30 00:11:30;;;;;;;9.93;9.33;;;;;;;11.02;83.76;93201.16;5042170;28;20278;-83
2023/10/30 00:13:55;;;;;;;10.57;9.70;;;;;;;11.12;83.50;93194.09;5041776;28;20188;-84
2023/10/30 00:16:21;;;;;;;9.53;8.90;;;;;;;11.14;83.25;93201.66;5048607;28;20230;-83
2023/10/30 00:18:47;;;;;;;9.97;9.27;;;;;;;11.13;84.08;93190.44;5067204;28;20202;-84
2023/10/30 00:21:13;;;;;;;10.13;9.53;;;;;;;11.15;84.53;93190.94;5070628;28;20225;-83
2023/10/30 00:23:38;;;;;;;10.43;9.63;;;;;;;11.01;85.67;93192.56;5066445;28;20200;-84
2023/10/30 00:26:04;;;;;;;9.07;8.37;;;;;;;11.04;85.97;93188.63;5046460;28;20221;-85
2023/10/30 00:28:34;;;;;;;9.97;9.37;;;;;;;11.12;85.03;93186.25;5043241;28;20941;-83
2023/10/30 00:31:00;;;;;;;10.57;9.83;;;;;;;11.05;85.43;93190.22;5046042;28;20230;-83
2023/10/30 00:33:25;;;;;;;11.53;10.47;;;;;;;11.15;83.99;93167.44;5045691;28;20226;-84
2023/10/30 00:35:50;;;;;;;10.23;9.40;;;;;;;11.14;84.70;93194.59;5043112;28;20235;-81
2023/10/30 00:38:16;;;;;;;10.13;9.27;;;;;;;11.09;84.57;93196.44;5041782;28;20202;-84
2023/10/30 00:40:41;;;;;;;10.77;9.97;;;;;;;10.96;85.73;93187.34;5057304;28;20254;-83
2023/10/30 00:43:06;;;;;;;10.53;9.57;;;;;;;10.99;86.05;93188.63;5072714;28;20185;-81
2023/10/30 00:45:32;;;;;;;10.37;9.77;;;;;;;10.91;86.76;93187.34;5070542;28;20225;-83
2023/10/30 00:47:58;;;;;;;10.33;9.53;;;;;;;10.97;86.02;93195.97;5076985;28;20187;-83
2023/10/30 00:50:23;;;;;;;10.67;9.70;;;;;;;10.99;85.54;93186.03;5071416;28;20221;-83
2023/10/30 00:52:48;;;;;;;10.33;9.73;;;;;;;10.94;86.13;93184.22;5067900;28;20184;-82
2023/10/30 00:55:14;;;;;;;9.43;8.83;;;;;;;10.84;85.23;93173.81;5070552;28;20231;-83
2023/10/30 00:57:39;;;;;;;9.70;8.87;;;;;;;10.92;85.36;93183.72;5038351;28;20183;-82
2023/10/30 01:00:05;;;;;;;10.23;9.40;;;;;;;10.89;85.87;93192.09;5037836;28;20286;-82
2023/10/30 01:02:31;;;;;;;10.53;9.83;;;;;;;10.84;86.07;93188.69;5046662;28;20184;-82
2023/10/30 01:04:57;;;;;;;9.73;8.93;;;;;;;10.74;86.80;93194.72;5051935;28;20225;-83
2023/10/30 01:07:22;;;;;;;9.07;8.57;;;;;;;10.74;86.83;93192.09;5072399;28;20239;-82
2023/10/30 01:09:49;;;;;;;11.00;10.20;;;;;;;10.76;86.53;93184.78;5061469;28;20240;-83
2023/10/30 01:12:14;;;;;;;8.77;8.37;;;;;;;10.83;86.69;93190.50;5055988;28;20175;-82
2023/10/30 01:14:40;;;;;;;8.70;8.10;;;;;;;10.96;86.69;93191.78;5052130;28;20195;-83
2023/10/30 01:17:05;;;;;;;11.40;10.50;;;;;;;10.74;86.43;93173.06;5049413;28;20184;-82
2023/10/30 01:19:31;;;;;;;9.80;9.20;;;;;;;10.59;88.08;93181.69;5053633;28;20241;-82
2023/10/30 01:21:56;;;;;;;12.13;9.67;;;;;;;10.74;86.73;93184.28;5075840;28;20201;-80
2023/10/30 01:24:21;;;;;;;10.10;9.60;;;;;;;10.73;87.24;93181.94;5043150;28;20195;-81
2023/10/30 01:26:47;;;;;;;10.07;9.37;;;;;;;10.77;87.29;93183.75;5045451;28;20241;-82
2023/10/30 01:29:12;;;;;;;10.20;9.47;;;;;;;10.63;87.96;93177.50;5058882;28;20196;-82
2023/10/30 01:31:38;;;;;;;10.10;9.50;;;;;;;10.59;87.26;93178.31;5051887;28;20217;-83
2023/10/30 01:34:03;;;;;;;10.67;9.83;;;;;;;10.56;86.86;93184.84;5067568;28;20196;-83
2023/10/30 01:36:29;;;;;;;9.80;9.30;;;;;;;10.51;87.54;93173.59;5034068;28;20216;-82
2023/10/30 01:38:54;;;;;;;9.83;9.30;;;;;;;10.39;89.13;93173.91;5033464;28;20210;-83
2023/10/30 01:41:20;;;;;;;9.37;8.83;;;;;;;10.42;89.21;93177.81;5065138;28;20224;-82
2023/10/30 01:43:45;;;;;;;10.17;9.23;;;;;;;10.44;88.04;93171.28;5053058;28;20190;-78
2023/10/30 01:46:10;;;;;;;9.47;9.03;;;;;;;10.31;88.45;93160.59;5072215;28;20238;-80
2023/10/30 01:48:36;;;;;;;9.77;9.17;;;;;;;10.33;89.53;93185.41;5058179;28;20186;-80
2023/10/30 01:51:05;;;;;;;9.27;8.77;;;;;;;10.32;89.59;93183.06;5061413;28;20222;-80
2023/10/30 01:53:32;;;;;;;10.17;9.47;;;;;;;10.32;89.47;93175.97;5065877;28;20746;-81
2023/10/30 01:55:58;;;;;;;10.50;9.93;;;;;;;10.42;89.31;93172.59;5060227;28;20252;-81
2023/10/30 01:58:25;;;;;;;9.23;8.83;;;;;;;10.33;89.71;93171.56;5071222;28;20191;-78
2023/10/30 02:00:51;;;;;;;9.57;8.87;;;;;;;10.41;89.43;93178.84;5067653;28;20217;-81
2023/10/30 02:03:17;;;;;;;10.23;9.63;;;;;;;10.37;90.36;93183.81;5062812;28;20190;-83
2023/10/30 02:05:42;;;;;;;10.70;9.90;;;;;;;10.38;90.53;93190.59;5070669;28;20249;-82
2023/10/30 02:08:09;;;;;;;10.77;10.00;;;;;;;10.25;91.54;93183.31;5064864;28;20183;-82
2023/10/30 02:10:35;;;;;;;9.90;9.17;;;;;;;10.34;91.92;93184.34;5057760;28;20240;-79
2023/10/30 02:13:05;;;;;;;9.77;9.13;;;;;;;10.37;91.35;93183.81;5044333;28;20815;-82
2023/10/30 02:15:30;;;;;;;8.90;8.27;;;;;;;10.24;91.69;93188.78;5044211;28;20228;-82
2023/10/30 02:17:56;;;;;;;10.93;10.07;;;;;;;10.15;92.67;93180.69;5054059;28;20187;-83
2023/10/30 02:20:22;;;;;;;9.43;8.93;;;;;;;10.20;93.02;93188.53;5042109;28;20306;-83
2023/10/30 02:22:47;;;;;;;9.97;9.07;;;;;;;10.21;92.28;93186.72;5050051;28;20186;-82
2023/10/30 02:30:30;;;;;;;10.07;9.40;;;;;;;9.87;92.79;93177.81;5094421;27;20365;-81
2023/10/30 02:32:55;;;;;;;10.50;9.97;;;;;;;9.91;92.90;93187.44;5058754;28;20197;-80
2023/10/30 02:35:21;;;;;;;9.67;8.87;;;;;;;9.94;93.07;93192.16;5055677;28;20218;-81
2023/10/30 02:37:47;;;;;;;10.77;9.73;;;;;;;9.96;93.39;93179.59;5055125;28;20232;-81
2023/10/30 02:40:13;;;;;;;10.80;10.20;;;;;;;10.28;92.10;93190.63;5063608;28;20297;-82
2023/10/30 02:42:39;;;;;;;9.57;8.90;;;;;;;10.14;92.55;93183.56;5065161;28;20186;-79
2023/10/30 02:45:06;;;;;;;10.17;9.40;;;;;;;10.04;92.67;93186.91;5059711;28;20228;-79
2023/10/30 02:47:33;;;;;;;12.60;11.67;;;;;;;9.83;94.12;93177.53;5061355;28;20322;-79
2023/10/30 02:49:59;;;;;;;11.13;10.33;;;;;;;10.01;93.86;93190.03;5063328;28;20245;-82
2023/10/30 02:52:24;;;;;;;12.47;9.20;;;;;;;9.98;93.48;93193.19;5061868;28;20186;-81
2023/10/30 02:54:50;;;;;;;10.60;9.73;;;;;;;9.96;93.60;93186.66;5066092;28;20255;-81
2023/10/30 02:57:15;;;;;;;10.40;9.90;;;;;;;10.00;93.13;93191.09;5060955;28;20193;-79
2023/10/30 02:59:41;;;;;;;10.30;9.50;;;;;;;9.96;92.87;93184.81;5064211;28;20190;-79
2023/10/30 03:02:07;;;;;;;10.53;9.93;;;;;;;9.97;93.13;93185.63;5064441;28;20210;-81
2023/10/30 03:04:33;;;;;;;10.20;9.43;;;;;;;10.05;93.65;93185.91;5052791;28;20189;-81
2023/10/30 03:06:59;;;;;;;10.17;9.57;;;;;;;10.01;93.10;93184.84;5058436;28;20179;-81
2023/10/30 03:09:26;;;;;;;11.60;10.70;;;;;;;10.02;92.86;93178.59;5059189;28;20210;-81
2023/10/30 03:11:51;;;;;;;13.03;11.93;;;;;;;9.85;92.96;93164.22;5065102;28;20244;-81
2023/10/30 03:14:17;;;;;;;12.47;11.30;;;;;;;9.87;94.11;93186.38;5062950;28;20186;-81
2023/10/30 03:16:42;;;;;;;12.07;10.97;;;;;;;9.91;94.34;93192.66;5056115;28;20221;-81
2023/10/30 03:19:08;;;;;;;11.47;10.57;;;;;;;9.97;93.31;93188.22;5063871;28;20181;-81
2023/10/30 03:21:34;;;;;;;10.23;9.50;;;;;;;9.80;94.42;93178.81;5065264;28;20229;-80
2023/10/30 03:23:59;;;;;;;10.70;10.13;;;;;;;9.69;95.09;93173.88;5062883;28;20213;-86
2023/10/30 03:26:25;;;;;;;9.77;9.03;;;;;;;9.70;96.14;93191.06;5064107;28;20758;-77
2023/10/30 03:28:50;;;;;;;9.67;8.90;;;;;;;9.70;96.47;93188.44;5058980;28;20233;-79
2023/10/30 03:31:16;;;;;;;10.50;9.70;;;;;;;9.83;95.59;93201.00;5062421;28;20229;-80
2023/10/30 03:33:41;;;;;;;10.27;9.53;;;;;;;9.86;95.01;93203.09;5060258;28;20196;-80
2023/10/30 03:36:07;;;;;;;10.47;9.80;;;;;;;9.76;95.75;93187.41;5063083;28;20231;-81
2023/10/30 03:38:32;;;;;;;11.13;10.33;;;;;;;9.82;96.06;93190.81;5059296;28;20195;-81
2023/10/30 03:40:58;;;;;;;10.87;10.17;;;;;;;9.84;95.35;93188.75;5053708;28;20226;-81
2023/10/30 03:43:24;;;;;;;12.00;10.73;;;;;;;9.84;95.13;93207.00;5048342;28;20195;-81
2023/10/30 03:45:49;;;;;;;10.17;9.30;;;;;;;9.77;96.34;93207.25;5051354;28;20237;-81
2023/10/30 03:48:14;;;;;;;11.80;10.67;;;;;;;9.86;96.96;93197.06;5049685;28;20221;-81
2023/10/30 03:50:40;;;;;;;11.07;10.13;;;;;;;9.72;95.96;93202.03;5047696;28;20233;-82
2023/10/30 03:53:06;;;;;;;11.93;10.67;;;;;;;9.56;97.21;93185.56;5046023;28;20182;-81
2023/10/30 03:55:32;;;;;;;11.60;10.43;;;;;;;9.71;96.81;93195.25;5049894;28;20916;-82
2023/10/30 03:57:57;;;;;;;11.20;10.33;;;;;;;9.63;96.63;93195.75;5059913;28;20273;-81
2023/10/30 04:00:23;;;;;;;10.83;10.03;;;;;;;9.73;96.19;93190.53;5035220;28;20236;-83
2023/10/30 04:02:48;;;;;;;10.20;9.30;;;;;;;9.73;95.79;93195.75;5040404;28;20198;-81
2023/10/30 04:05:14;;;;;;;9.80;9.23;;;;;;;9.58;95.10;93180.09;5042618;28;20221;-80
2023/10/30 04:07:39;;;;;;;10.17;9.57;;;;;;;9.63;95.65;93199.13;5051712;28;20193;-81
2023/10/30 04:10:05;;;;;;;10.10;9.40;;;;;;;9.69;96.11;93192.13;5046500;28;20230;-81
2023/10/30 04:12:31;;;;;;;11.07;9.90;;;;;;;9.62;95.95;93191.56;5025997;28;21575;-81
2023/10/30 04:14:57;;;;;;;10.80;10.00;;;;;;;9.72;96.40;93192.38;5027591;28;20261;-80
2023/10/30 04:17:23;;;;;;;10.37;9.77;;;;;;;9.69;96.89;93181.69;5044602;28;20197;-81
2023/10/30 04:19:48;;;;;;;10.57;9.77;;;;;;;9.67;97.27;93188.97;5048563;28;20234;-81
2023/10/30 04:22:13;;;;;;;9.37;8.87;;;;;;;9.57;96.66;93173.31;5050918;28;20927;-80
2023/10/30 04:24:39;;;;;;;11.23;10.30;;;;;;;9.59;98.08;93185.06;5050581;28;20200;-81
2023/10/30 04:27:05;;;;;;;11.07;10.17;;;;;;;9.29;98.13;93142.53;5049532;28;20247;-80
2023/10/30 04:29:31;;;;;;;9.67;9.27;;;;;;;9.56;98.15;93171.75;5040315;28;20234;-81
2023/10/30 04:31:56;;;;;;;10.73;9.80;;;;;;;9.64;97.71;93195.50;5027258;28;20199;-81
2023/10/30 04:34:21;;;;;;;11.20;10.27;;;;;;;9.42;99.89;93200.13;5015937;28;20186;-81
2023/10/30 04:36:47;;;;;;;10.93;10.33;;;;;;;9.50;99.26;93183.22;5042147;28;20222;-81
2023/10/30 04:39:13;;;;;;;9.30;8.90;;;;;;;9.47;98.89;93189.72;5048609;28;20182;-84
2023/10/30 04:41:39;;;;;;;9.73;9.20;;;;;;;9.31;99.72;93176.88;5049506;28;20242;-84
2023/10/30 04:44:04;;;;;;;11.17;10.53;;;;;;;9.45;99.34;93196.22;5050159;28;20196;-83
2023/10/30 04:46:30;;;;;;;10.37;9.87;;;;;;;9.35;99.09;93167.53;5050855;28;20229;-82
2023/10/30 04:48:55;;;;;;;10.23;9.63;;;;;;;9.34;100.00;93173.78;5059015;28;20229;-83
2023/10/30 04:51:21;;;;;;;10.90;10.10;;;;;;;9.42;99.47;93184.50;5043832;28;21335;-82
2023/10/30 04:53:46;;;;;;;10.93;10.33;;;;;;;9.35;99.21;93181.34;5058814;28;20208;-82
2023/10/30 04:56:11;;;;;;;11.30;10.33;;;;;;;9.42;99.55;93191.53;5060515;28;20228;-82
2023/10/30 04:58:37;;;;;;;11.27;10.40;;;;;;;9.39;100.00;93197.25;5037777;28;20221;-82
2023/10/30 05:01:08;;;;;;;11.27;10.13;;;;;;;9.54;99.20;93195.47;5035970;28;20251;-79
2023/10/30 05:03:35;;;;;;;11.33;10.40;;;;;;;9.32;99.07;93181.09;5046781;28;20253;-79
2023/10/30 05:06:04;;;;;;;10.87;10.27;;;;;;;9.42;99.38;93200.13;5050226;28;20214;-83
2023/10/30 05:08:30;;;;;;;11.60;10.50;;;;;;;9.51;99.74;93197.78;5047387;28;20202;-83
2023/10/30 05:10:55;;;;;;;11.13;10.47;;;;;;;9.61;99.94;93203.84;5036401;28;20286;-84
2023/10/30 05:13:20;;;;;;;10.67;9.83;;;;;;;9.64;98.77;93207.75;5046695;28;20205;-82
2023/10/30 05:15:46;;;;;;;10.03;9.33;;;;;;;9.58;99.67;93206.97;5043388;28;20225;-84
2023/10/30 05:18:13;;;;;;;10.87;9.77;;;;;;;9.61;99.09;93210.84;5038289;28;20213;-83
2023/10/30 05:20:38;;;;;;;10.73;9.83;;;;;;;9.46;99.43;93197.81;5056505;28;20230;-84
2023/10/30 05:23:04;;;;;;;10.33;9.83;;;;;;;9.64;99.39;93215.56;5061435;28;20352;-81
2023/10/30 05:25:29;;;;;;;11.27;10.37;;;;;;;9.50;98.92;93204.06;5043687;28;20233;-82
2023/10/30 05:27:54;;;;;;;11.07;10.27;;;;;;;9.65;98.22;93217.91;5063473;28;20271;-84
2023/10/30 05:30:20;;;;;;;13.93;10.87;;;;;;;9.61;98.48;93210.84;5050538;28;20237;-84
2023/10/30 05:32:45;;;;;;;11.03;10.20;;;;;;;9.72;98.35;93228.88;5052590;28;20194;-83
2023/10/30 05:35:11;;;;;;;11.90;10.80;;;;;;;9.72;99.37;93228.09;5036385;28;20300;-80
2023/10/30 05:37:36;;;;;;;12.43;11.13;;;;;;;9.68;99.58;93227.81;5048499;28;20185;-81
2023/10/30 05:40:02;;;;;;;11.87;10.90;;;;;;;9.88;98.73;93237.53;5051680;28;20229;-83
2023/10/30 05:42:27;;;;;;;12.20;10.87;;;;;;;9.92;98.65;93238.56;5054583;28;20200;-76
2023/10/30 05:44:54;;;;;;;19.83;10.13;;;;;;;10.02;98.39;93241.19;5061499;28;20285;-77
2023/10/30 05:47:19;;;;;;;16.03;10.13;;;;;;;10.09;98.18;93251.38;5046925;28;20882;-78
2023/10/30 05:49:45;;;;;;;12.17;11.00;;;;;;;10.08;97.92;93248.00;5045855;28;20201;-77
2023/10/30 05:52:11;;;;;;;11.57;10.40;;;;;;;10.19;98.24;93254.00;5047814;28;20193;-79
2023/10/30 05:54:36;;;;;;;14.50;9.87;;;;;;;10.22;98.19;93249.06;5036710;28;20728;-84
2023/10/30 05:57:02;;;;;;;11.60;10.80;;;;;;;10.18;98.44;93248.00;5033220;28;20182;-75
2023/10/30 05:59:27;;;;;;;14.50;12.03;;;;;;;10.25;97.99;93247.75;5032331;28;20202;-76
2023/10/30 06:01:53;;;;;;;18.43;12.80;;;;;;;10.30;96.48;93250.38;5029316;28;20265;-77
2023/10/30 06:04:18;;;;;;;14.97;12.70;;;;;;;10.49;95.13;93254.78;5029112;28;20183;-82
2023/10/30 06:06:43;;;;;;;16.23;12.80;;;;;;;10.53;94.75;93255.84;5052396;28;20222;-77
2023/10/30 06:09:09;;;;;;;14.10;12.37;;;;;;;10.66;93.33;93255.31;5045901;28;20244;-82
2023/10/30 06:11:34;;;;;;;14.47;12.97;;;;;;;10.71;93.44;93267.56;5042139;28;20219;-79
2023/10/30 06:13:59;;;;;;;14.47;12.10;;;;;;;10.78;93.08;93273.31;5029333;28;20214;-76
2023/10/30 06:16:25;;;;;;;12.37;11.20;;;;;;;10.85;92.75;93266.78;5040725;28;20302;-80
2023/10/30 06:18:50;;;;;;;14.90;11.83;;;;;;;10.67;91.95;93233.41;5054451;28;20188;-88
2023/10/30 06:21:18;;;;;;;12.27;11.37;;;;;;;11.10;90.19;93271.97;5036983;28;20237;-87
2023/10/30 06:23:44;;;;;;;11.53;10.50;;;;;;;11.29;87.75;93267.75;5034978;28;20223;-81
2023/10/30 06:26:11;;;;;;;11.90;11.20;;;;;;;11.32;86.32;93279.47;5039934;28;21012;-88
2023/10/30 06:28:37;;;;;;;13.63;12.47;;;;;;;11.20;87.19;93271.97;5038924;28;20260;-84
2023/10/30 06:31:14;;;;;;;13.07;12.07;;;;;;;11.17;87.93;93276.91;5049071;28;20227;-89
2023/10/30 06:33:39;;;;;;;13.20;11.83;;;;;;;11.12;88.77;93280.34;5038544;28;20258;-78
2023/10/30 06:36:05;;;;;;;13.83;12.73;;;;;;;11.13;89.24;93279.28;5042715;28;20214;-77
2023/10/30 06:38:30;;;;;;;15.20;13.47;;;;;;;11.33;88.57;93271.38;5043907;28;20182;-82
2023/10/30 06:40:56;;;;;;;14.63;13.23;;;;;;;11.43;88.07;93282.84;5041544;28;20218;-79
2023/10/30 06:43:21;;;;;;;14.03;12.83;;;;;;;11.35;88.48;93277.13;5040925;28;20189;-77
2023/10/30 06:45:47;;;;;;;14.73;13.50;;;;;;;11.46;88.68;93279.69;5034914;28;20237;-83
2023/10/30 06:48:12;;;;;;;14.47;13.00;;;;;;;11.53;88.86;93288.84;5028661;28;20209;-85
2023/10/30 06:50:37;;;;;;;13.43;12.30;;;;;;;11.71;86.71;93277.00;5024250;28;20237;-85
2023/10/30 06:53:03;;;;;;;14.23;12.80;;;;;;;11.90;85.95;93283.19;5015105;28;20211;-79
2023/10/30 06:55:28;;;;;;;14.37;12.87;;;;;;;11.98;85.57;93280.03;5012795;28;20328;-79
2023/10/30 06:57:53;;;;;;;13.27;12.20;;;;;;;12.11;85.27;93289.91;5017505;28;20516;-79
2023/10/30 07:00:19;;;;;;;13.17;11.87;;;;;;;12.04;87.42;93281.56;5025410;28;20276;-78
2023/10/30 07:02:45;;;;;;;14.13;13.13;;;;;;;12.16;86.05;93284.63;5039267;28;20291;-78
2023/10/30 07:05:11;;;;;;;14.47;13.03;;;;;;;12.21;85.36;93287.22;5046338;28;20234;-77
2023/10/30 07:07:36;;;;;;;13.17;12.07;;;;;;;12.38;84.35;93287.63;5047029;28;20191;-80
2023/10/30 07:10:02;;;;;;;13.63;12.30;;;;;;;12.69;82.06;93292.38;5047532;28;20231;-73
2023/10/30 07:12:28;;;;;;;13.73;12.53;;;;;;;12.73;80.50;93290.75;5048199;28;20182;-73
2023/10/30 07:14:53;;;;;;;17.07;11.53;;;;;;;12.63;81.10;93287.44;5037035;28;20234;-74
2023/10/30 07:17:19;;;;;;;13.73;12.57;;;;;;;12.43;80.44;93274.50;5034525;28;20279;-73
2023/10/30 07:19:46;;;;;;;12.43;11.17;;;;;;;12.32;80.95;93286.09;5051680;28;20209;-74
2023/10/30 07:22:12;;;;;;;12.23;11.07;;;;;;;12.60;80.51;93285.38;5051373;28;20184;-74
2023/10/30 07:24:37;;;;;;;14.00;12.13;;;;;;;12.66;80.65;93290.31;5048006;28;20186;-73
2023/10/30 07:27:03;;;;;;;13.60;12.20;;;;;;;12.57;80.55;93291.16;5050200;28;20221;-74
2023/10/30 07:29:28;;;;;;;14.03;12.57;;;;;;;12.83;79.97;93289.91;5031800;28;20234;-71
2023/10/30 07:31:55;;;;;;;12.07;11.00;;;;;;;13.17;77.53;93292.53;5047032;28;20209;-74
2023/10/30 07:34:21;;;;;;;14.03;12.07;;;;;;;13.32;76.53;93293.16;5040813;28;20206;-73
2023/10/30 07:36:47;;;;;;;12.40;11.50;;;;;;;13.37;75.92;93297.56;5049406;28;20279;-74
2023/10/30 07:39:12;;;;;;;12.33;11.13;;;;;;;13.34;75.57;93296.25;5049995;28;20178;-74
2023/10/30 07:41:38;;;;;;;11.40;10.40;;;;;;;13.50;74.70;93299.50;5049164;28;20249;-74
2023/10/30 07:44:04;;;;;;;12.07;10.97;;;;;;;13.61;74.06;93300.97;5052493;28;20198;-73
2023/10/30 07:46:29;;;;;;;12.00;10.83;;;;;;;13.51;74.98;93301.09;5050506;28;20229;-73
2023/10/30 07:48:55;;;;;;;11.23;10.17;;;;;;;13.29;75.21;93301.53;5057403;28;20217;-74
2023/10/30 07:51:20;;;;;;;11.60;10.27;;;;;;;13.14;76.11;93301.72;5046393;28;20291;-74
2023/10/30 07:53:45;;;;;;;11.33;10.50;;;;;;;13.18;76.29;93300.13;5039011;28;20178;-74
2023/10/30 07:56:11;;;;;;;16.07;11.57;;;;;;;13.25;76.71;93297.94;5037668;28;20215;-74
2023/10/30 07:58:36;;;;;;;12.10;11.07;;;;;;;13.52;76.64;93286.91;5039545;28;20262;-74
2023/10/30 08:01:03;;;;;;;12.87;11.73;;;;;;;13.66;75.11;93296.44;5027579;28;20223;-75
2023/10/30 08:03:28;;;;;;;13.30;12.13;;;;;;;13.68;75.39;93307.44;5030626;28;20191;-74
2023/10/30 08:05:53;;;;;;;13.73;12.43;;;;;;;13.80;74.41;93299.97;5030591;28;21210;-74
2023/10/30 08:08:19;;;;;;;11.03;10.13;;;;;;;13.58;76.67;93294.44;5028784;28;20195;-75
2023/10/30 08:10:45;;;;;;;15.47;11.63;;;;;;;13.61;75.90;93290.47;5031398;28;20227;-74
2023/10/30 08:13:11;;;;;;;12.50;11.47;;;;;;;13.94;74.20;93269.34;5029999;28;20183;-74
2023/10/30 08:15:36;;;;;;;14.40;12.37;;;;;;;14.24;72.66;93284.69;5017277;28;20256;-74
2023/10/30 08:18:05;;;;;;;12.73;11.50;;;;;;;14.38;72.07;93285.53;5029689;28;20210;-74
2023/10/30 08:20:30;;;;;;;14.43;11.73;;;;;;;14.45;72.09;93291.25;5027594;28;20281;-74
2023/10/30 08:22:56;;;;;;;14.07;12.83;;;;;;;14.56;71.01;93293.69;5030551;28;20198;-74
2023/10/30 08:25:21;;;;;;;16.10;12.40;;;;;;;14.21;73.02;93285.22;5026687;28;20226;-74
2023/10/30 08:27:47;;;;;;;13.70;12.37;;;;;;;14.12;73.45;93288.78;5027947;28;20186;-73
2023/10/30 08:30:12;;;;;;;14.20;12.90;;;;;;;14.33;73.05;93290.09;5023785;28;20246;-73
2023/10/30 08:32:39;;;;;;;13.57;12.27;;;;;;;14.46;72.02;93286.75;5020770;28;20186;-74
2023/10/30 08:35:05;;;;;;;12.73;11.70;;;;;;;14.38;72.00;93285.53;5023159;28;20227;-74
2023/10/30 08:37:30;;;;;;;14.43;11.80;;;;;;;14.51;72.48;93284.06;5022123;28;20203;-74
2023/10/30 08:39:56;;;;;;;16.23;12.23;;;;;;;14.80;71.61;93297.78;5024135;28;20246;-73
2023/10/30 08:42:21;;;;;;;12.73;11.63;;;;;;;15.05;70.04;93270.31;5023805;28;20188;-74
2023/10/30 08:44:47;;;;;;;13.77;12.57;;;;;;;15.31;69.26;93297.75;5023377;28;20191;-72
2023/10/30 08:47:14;;;;;;;14.23;12.83;;;;;;;15.35;68.88;93296.06;5030798;28;20186;-74
2023/10/30 08:49:40;;;;;;;14.93;12.33;;;;;;;15.43;68.32;93282.28;5030362;28;20219;-74
2023/10/30 08:52:05;;;;;;;13.43;12.20;;;;;;;15.27;70.29;93288.88;5049196;28;20257;-74
2023/10/30 08:54:31;;;;;;;21.60;13.77;;;;;;;15.15;70.15;93273.53;5044687;28;20214;-73
2023/10/30 08:56:56;;;;;;;14.20;12.73;;;;;;;15.42;69.23;93284.16;5048389;28;20225;-73
2023/10/30 08:59:22;;;;;;;14.83;12.63;;;;;;;15.62;68.44;93293.50;5048704;28;20174;-74
2023/10/30 09:01:47;;;;;;;16.07;13.13;;;;;;;15.72;68.38;93288.06;5043398;28;20218;-74
2023/10/30 09:04:12;;;;;;;18.27;12.97;;;;;;;15.98;67.09;93286.47;5047256;28;20190;-73
2023/10/30 09:06:38;;;;;;;13.37;11.27;;;;;;;15.99;67.16;93288.03;5049368;28;20300;-74
2023/10/30 09:09:03;;;;;;;12.13;11.03;;;;;;;15.67;68.08;93282.88;5034787;28;20202;-74
2023/10/30 09:11:29;;;;;;;16.60;10.77;;;;;;;15.74;68.60;93278.00;5027531;28;20290;-74
2023/10/30 09:13:54;;;;;;;12.37;11.17;;;;;;;15.76;68.58;93279.28;5013566;28;20195;-73
2023/10/30 09:16:20;;;;;;;13.83;11.27;;;;;;;15.94;68.16;93277.59;5042068;28;20260;-73
2023/10/30 09:18:45;;;;;;;17.97;11.83;;;;;;;16.12;67.95;93274.06;5049860;28;20254;-73
2023/10/30 09:21:11;;;;;;;12.73;11.50;;;;;;;16.44;67.05;93275.72;5048513;28;20218;-73
2023/10/30 09:23:37;;;;;;;15.47;10.97;;;;;;;16.26;68.16;93261.66;5041683;28;20186;-73
2023/10/30 09:26:03;;;;;;;12.23;11.03;;;;;;;16.65;66.00;93269.75;5039131;28;20229;-74
2023/10/30 09:28:28;;;;;;;12.30;11.13;;;;;;;16.77;64.55;93272.63;5035949;28;20225;-72
2023/10/30 09:30:53;;;;;;;11.77;10.63;;;;;;;16.83;64.24;93271.44;5038354;28;20214;-74
2023/10/30 09:33:19;;;;;;;14.03;10.83;;;;;;;16.78;64.90;93274.19;5043319;28;20178;-74
2023/10/30 09:35:44;;;;;;;14.23;12.03;;;;;;;16.54;66.37;93272.91;5047475;28;20218;-74
2023/10/30 09:38:10;;;;;;;11.37;10.43;;;;;;;16.43;66.33;93271.53;5046757;28;20190;-74
2023/10/30 09:40:35;;;;;;;13.30;12.07;;;;;;;16.41;66.68;93263.94;5042242;28;20302;-74
2023/10/30 09:43:04;;;;;;;17.50;11.37;;;;;;;16.47;66.66;93251.47;5041923;28;20194;-73
2023/10/30 09:45:29;;;;;;;12.87;11.77;;;;;;;16.68;65.47;93258.59;5046790;28;20226;-74
2023/10/30 09:47:56;;;;;;;11.33;10.13;;;;;;;16.76;65.59;93254.47;5048921;28;20232;-74
2023/10/30 09:50:23;;;;;;;12.97;11.73;;;;;;;16.41;65.83;93221.78;5045951;28;20227;-74
2023/10/30 09:52:51;;;;;;;13.80;9.47;;;;;;;16.59;66.45;93238.53;5047020;28;20822;-74
2023/10/30 09:55:22;;;;;;;13.87;10.63;;;;;;;16.95;65.06;93245.28;5029687;28;20226;-73
2023/10/30 09:57:51;;;;;;;11.53;10.47;;;;;;;17.09;64.29;93243.34;5029944;28;20187;-74
2023/10/30 10:00:17;;;;;;;11.90;10.63;;;;;;;17.50;64.09;93237.81;5029412;28;20218;-73
2023/10/30 10:02:43;;;;;;;11.93;10.93;;;;;;;17.48;63.40;93235.47;5042181;28;20774;-74
2023/10/30 10:05:09;;;;;;;11.30;10.40;;;;;;;17.16;64.30;93233.16;5033081;28;20225;-74
2023/10/30 10:07:35;;;;;;;11.63;10.57;;;;;;;17.17;63.99;93220.72;5047468;28;20185;-75
2023/10/30 10:10:06;;;;;;;11.90;10.70;;;;;;;17.26;63.74;93232.09;5039002;28;20226;-74
2023/10/30 10:12:33;;;;;;;10.53;9.67;;;;;;;17.15;62.64;93220.25;5044883;28;20236;-74
2023/10/30 10:14:59;;;;;;;11.80;10.80;;;;;;;17.30;63.38;93223.28;5048935;28;20225;-74
2023/10/30 10:17:24;;;;;;;11.40;10.20;;;;;;;17.31;62.16;93214.25;5043871;28;20178;-73
2023/10/30 10:19:50;;;;;;;10.97;9.97;;;;;;;17.39;62.57;93210.88;5026560;28;20233;-73
2023/10/30 10:22:32;;;;;;;12.87;11.57;;;;;;;17.85;61.08;93207.78;5022601;28;20244;-73
2023/10/30 10:24:59;;;;;;;12.97;11.10;;;;;;;17.99;61.05;93207.66;5013812;28;20234;-73
2023/10/30 10:27:26;;;;;;;11.43;10.40;;;;;;;17.87;61.94;93199.56;5044212;28;20906;-74
2023/10/30 10:29:55;;;;;;;14.70;11.20;;;;;;;18.10;60.17;93198.34;5045513;28;20226;-74
2023/10/30 10:32:28;;;;;;;11.83;10.67;;;;;;;18.11;58.28;93186.69;5045888;28;20216;-74
2023/10/30 10:34:57;;;;;;;11.00;9.97;;;;;;;18.33;58.32;93194.47;5045447;28;20233;-74
2023/10/30 10:37:23;;;;;;;14.13;10.30;;;;;;;18.50;57.59;93195.28;5047955;28;20183;-73
2023/10/30 10:39:50;;;;;;;11.17;10.10;;;;;;;18.53;57.46;93191.22;5047853;28;20285;-74
2023/10/30 10:42:20;;;;;;;24.00;10.47;;;;;;;18.57;56.46;93185.00;5035379;28;20214;-75
2023/10/30 10:44:46;;;;;;;10.70;9.90;;;;;;;18.66;56.81;93190.28;5040327;28;20207;-74
2023/10/30 10:47:12;;;;;;;10.57;9.63;;;;;;;18.37;57.29;93187.44;5050423;28;20213;-74
2023/10/30 10:49:38;;;;;;;12.47;9.17;;;;;;;18.53;56.38;93194.66;5039373;28;20211;-73
2023/10/30 10:52:08;;;;;;;11.13;9.33;;;;;;;18.58;57.43;93188.41;5032742;28;20180;-74
2023/10/30 10:54:40;;;;;;;13.13;9.03;;;;;;;18.76;55.72;93182.78;5032537;28;20186;-72
2023/10/30 10:57:08;;;;;;;11.63;10.47;;;;;;;18.57;56.46;93181.56;5037735;28;20245;-74
2023/10/30 10:59:35;;;;;;;11.17;10.00;;;;;;;18.82;55.36;93180.75;5044945;28;20177;-73
2023/10/30 11:02:07;;;;;;;10.00;9.23;;;;;;;18.66;55.62;93158.53;5046654;28;20180;-74
2023/10/30 11:04:32;;;;;;;9.77;9.07;;;;;;;18.61;55.99;93177.22;5044765;28;20195;-74
2023/10/30 11:07:03;;;;;;;12.47;8.60;;;;;;;18.59;53.61;93169.59;5051567;28;20250;-73
2023/10/30 11:09:36;;;;;;;8.73;8.13;;;;;;;18.63;53.33;93165.22;5049904;28;20221;-71
2023/10/30 11:12:19;;;;;;;9.47;8.83;;;;;;;18.51;53.73;93166.94;5034025;28;20241;-74
2023/10/30 11:15:00;;;;;;;9.73;9.03;;;;;;;18.87;53.46;93170.78;5058318;28;20187;-74
2023/10/30 11:17:26;;;;;;;10.10;9.17;;;;;;;19.08;52.96;93155.75;5054732;28;20218;-74
2023/10/30 11:20:01;;;;;;;12.67;10.07;;;;;;;19.03;54.59;93152.53;5051185;28;20238;-73
2023/10/30 11:22:40;;;;;;;13.83;9.73;;;;;;;19.16;54.08;93156.81;5038612;28;20202;-74
2023/10/30 11:25:26;;;;;;;11.03;9.93;;;;;;;19.38;53.45;93153.97;5042888;28;20262;-74